sensor_id;sensor_type;location;lat;lon;timestamp;pressure;altitude;pressure_sealevel;temperature;humidity
15646;BME280;7922;43.622;1.476;2023-02-13T00:01:06;101646.97;;;2.21;91.11
15646;BME280;7922;43.622;1.476;2023-02-13T00:03:31;101671.66;;;2.35;91.19
15646;BME280;7922;43.622;1.476;2023-02-13T00:05:56;101689.16;;;2.39;91.65
15646;BME280;7922;43.622;1.476;2023-02-13T00:08:21;101490.97;;;1.21;91.54
15646;BME280;7922;43.622;1.476;2023-02-13T00:10:47;101704.78;;;2.34;92.49
15646;BME280;7922;43.622;1.476;2023-02-13T00:13:12;101552.47;;;1.51;92.37
15646;BME280;7922;43.622;1.476;2023-02-13T00:15:37;101737.44;;;2.56;92.31
15646;BME280;7922;43.622;1.476;2023-02-13T00:18:03;101603.47;;;1.76;92.19
15646;BME280;7922;43.622;1.476;2023-02-13T00:20:29;101679.06;;;2.12;92.52
15646;BME280;7922;43.622;1.476;2023-02-13T00:22:54;101701.94;;;2.24;93.29
15646;BME280;7922;43.622;1.476;2023-02-13T00:25:19;101701.19;;;2.29;92.85
15646;BME280;7922;43.622;1.476;2023-02-13T00:27:45;101647.44;;;1.98;93.02
15646;BME280;7922;43.622;1.476;2023-02-13T00:30:10;101702.94;;;2.30;92.46
15646;BME280;7922;43.622;1.476;2023-02-13T00:32:36;101742.78;;;2.62;93.20
15646;BME280;7922;43.622;1.476;2023-02-13T00:35:01;101704.16;;;2.49;93.08
15646;BME280;7922;43.622;1.476;2023-02-13T00:37:26;101667.16;;;2.28;93.25
15646;BME280;7922;43.622;1.476;2023-02-13T00:39:52;101652.28;;;2.24;93.14
15646;BME280;7922;43.622;1.476;2023-02-13T00:42:17;101542.03;;;1.52;92.60
15646;BME280;7922;43.622;1.476;2023-02-13T00:44:42;101675.81;;;2.24;92.46
15646;BME280;7922;43.622;1.476;2023-02-13T00:47:07;101531.50;;;1.48;92.01
15646;BME280;7922;43.622;1.476;2023-02-13T00:49:33;101731.41;;;2.60;92.67
15646;BME280;7922;43.622;1.476;2023-02-13T00:51:58;101667.97;;;2.24;92.50
15646;BME280;7922;43.622;1.476;2023-02-13T00:54:23;101679.34;;;2.27;91.99
15646;BME280;7922;43.622;1.476;2023-02-13T00:56:48;101646.78;;;2.08;92.46
15646;BME280;7922;43.622;1.476;2023-02-13T00:59:14;101692.38;;;2.24;92.43
15646;BME280;7922;43.622;1.476;2023-02-13T01:01:39;101718.63;;;2.30;92.26
15646;BME280;7922;43.622;1.476;2023-02-13T01:04:05;101587.28;;;1.50;92.45
15646;BME280;7922;43.622;1.476;2023-02-13T01:06:30;101695.75;;;2.19;92.82
15646;BME280;7922;43.622;1.476;2023-02-13T01:08:55;101654.28;;;1.91;92.41
15646;BME280;7922;43.622;1.476;2023-02-13T01:11:20;101664.88;;;1.99;92.79
15646;BME280;7922;43.622;1.476;2023-02-13T01:13:46;101744.19;;;2.45;92.33
15646;BME280;7922;43.622;1.476;2023-02-13T01:16:11;101743.25;;;2.40;92.28
15646;BME280;7922;43.622;1.476;2023-02-13T01:18:37;101701.78;;;2.14;92.16
15646;BME280;7922;43.622;1.476;2023-02-13T01:21:05;101632.06;;;1.69;91.55
15646;BME280;7922;43.622;1.476;2023-02-13T01:23:37;101720.09;;;2.16;91.58
15646;BME280;7922;43.622;1.476;2023-02-13T01:26:04;101709.50;;;2.08;91.56
15646;BME280;7922;43.622;1.476;2023-02-13T01:28:29;101642.50;;;1.68;91.73
15646;BME280;7922;43.622;1.476;2023-02-13T01:30:56;101618.47;;;1.45;91.10
15646;BME280;7922;43.622;1.476;2023-02-13T01:33:26;101722.28;;;1.95;91.90
15646;BME280;7922;43.622;1.476;2023-02-13T01:35:51;101737.47;;;2.12;91.98
15646;BME280;7922;43.622;1.476;2023-02-13T01:38:17;101636.97;;;1.54;91.53
15646;BME280;7922;43.622;1.476;2023-02-13T01:40:48;101603.53;;;1.36;91.46
15646;BME280;7922;43.622;1.476;2023-02-13T01:43:14;101558.44;;;1.03;91.63
15646;BME280;7922;43.622;1.476;2023-02-13T01:45:39;101717.13;;;1.98;91.21
15646;BME280;7922;43.622;1.476;2023-02-13T01:48:17;101711.75;;;1.91;91.93
15646;BME280;7922;43.622;1.476;2023-02-13T01:50:57;101615.63;;;1.33;91.28
15646;BME280;7922;43.622;1.476;2023-02-13T01:53:43;101686.25;;;1.78;91.16
15646;BME280;7922;43.622;1.476;2023-02-13T01:58:43;101588.28;;;1.15;90.41
15646;BME280;7922;43.622;1.476;2023-02-13T02:01:10;101555.41;;;0.84;90.39
15646;BME280;7922;43.622;1.476;2023-02-13T02:03:41;101732.41;;;1.79;90.69
15646;BME280;7922;43.622;1.476;2023-02-13T02:06:13;101659.03;;;1.28;90.32
15646;BME280;7922;43.622;1.476;2023-02-13T02:08:39;101714.69;;;1.64;90.86
15646;BME280;7922;43.622;1.476;2023-02-13T02:11:16;101732.09;;;1.64;91.08
15646;BME280;7922;43.622;1.476;2023-02-13T02:13:45;101728.44;;;1.57;90.69
15646;BME280;7922;43.622;1.476;2023-02-13T02:16:11;101675.56;;;1.28;89.81
15646;BME280;7922;43.622;1.476;2023-02-13T02:18:36;101709.81;;;1.42;90.00
15646;BME280;7922;43.622;1.476;2023-02-13T02:23:57;101714.19;;;1.43;90.22
15646;BME280;7922;43.622;1.476;2023-02-13T02:29:09;101767.56;;;1.56;90.23
15646;BME280;7922;43.622;1.476;2023-02-13T02:37:57;101772.63;;;1.48;90.25
15646;BME280;7922;43.622;1.476;2023-02-13T02:40:36;101709.78;;;1.04;90.45
15646;BME280;7922;43.622;1.476;2023-02-13T02:46:23;101783.63;;;1.35;90.16
15646;BME280;7922;43.622;1.476;2023-02-13T02:49:08;101695.34;;;0.82;90.46
15646;BME280;7922;43.622;1.476;2023-02-13T02:51:58;101788.84;;;1.35;90.70
15646;BME280;7922;43.622;1.476;2023-02-13T02:54:44;101780.97;;;1.33;90.43
15646;BME280;7922;43.622;1.476;2023-02-13T02:57:16;101783.44;;;1.27;89.62
15646;BME280;7922;43.622;1.476;2023-02-13T02:59:45;101714.47;;;0.83;89.79
15646;BME280;7922;43.622;1.476;2023-02-13T03:02:13;101805.06;;;1.22;89.77
15646;BME280;7922;43.622;1.476;2023-02-13T03:04:43;101739.53;;;0.76;90.05
15646;BME280;7922;43.622;1.476;2023-02-13T03:07:14;101613.56;;;0.11;89.93
15646;BME280;7922;43.622;1.476;2023-02-13T03:09:42;101740.72;;;0.89;90.37
15646;BME280;7922;43.622;1.476;2023-02-13T03:12:08;101634.53;;;0.15;89.53
15646;BME280;7922;43.622;1.476;2023-02-13T03:14:36;101741.50;;;0.85;89.12
15646;BME280;7922;43.622;1.476;2023-02-13T03:17:02;101674.34;;;0.43;89.56
15646;BME280;7922;43.622;1.476;2023-02-13T03:22:07;101724.31;;;0.58;88.97
15646;BME280;7922;43.622;1.476;2023-02-13T03:27:49;101769.22;;;0.81;89.36
15646;BME280;7922;43.622;1.476;2023-02-13T03:30:39;101764.78;;;0.77;89.13
15646;BME280;7922;43.622;1.476;2023-02-13T03:41:40;101743.19;;;0.50;89.34
15646;BME280;7922;43.622;1.476;2023-02-13T03:44:25;101757.97;;;0.51;90.18
15646;BME280;7922;43.622;1.476;2023-02-13T03:46:55;101780.91;;;0.62;90.51
15646;BME280;7922;43.622;1.476;2023-02-13T03:49:32;101730.69;;;0.38;91.71
15646;BME280;7922;43.622;1.476;2023-02-13T03:52:08;101722.75;;;0.33;93.00
15646;BME280;7922;43.622;1.476;2023-02-13T03:54:41;101739.41;;;0.38;94.09
15646;BME280;7922;43.622;1.476;2023-02-13T03:57:10;101767.69;;;0.56;93.39
15646;BME280;7922;43.622;1.476;2023-02-13T03:59:38;101583.41;;;-0.44;94.26
15646;BME280;7922;43.622;1.476;2023-02-13T04:02:13;101706.00;;;0.25;93.68
15646;BME280;7922;43.622;1.476;2023-02-13T04:04:56;101793.47;;;0.77;93.02
15646;BME280;7922;43.622;1.476;2023-02-13T04:07:24;101615.81;;;-0.35;93.10
15646;BME280;7922;43.622;1.476;2023-02-13T04:09:50;101804.53;;;1.02;95.26
15646;BME280;7922;43.622;1.476;2023-02-13T04:12:18;101772.81;;;0.85;94.41
15646;BME280;7922;43.622;1.476;2023-02-13T04:14:49;101607.56;;;-0.18;93.31
15646;BME280;7922;43.622;1.476;2023-02-13T04:17:28;101694.72;;;0.24;93.55
15646;BME280;7922;43.622;1.476;2023-02-13T04:19:54;101750.88;;;0.45;93.55
15646;BME280;7922;43.622;1.476;2023-02-13T04:22:20;101770.31;;;0.58;92.61
15646;BME280;7922;43.622;1.476;2023-02-13T04:24:46;101732.25;;;0.31;92.87
15646;BME280;7922;43.622;1.476;2023-02-13T04:27:15;101757.56;;;0.35;92.67
15646;BME280;7922;43.622;1.476;2023-02-13T04:29:41;101805.25;;;0.63;92.27
15646;BME280;7922;43.622;1.476;2023-02-13T04:32:09;101790.19;;;0.53;92.03
15646;BME280;7922;43.622;1.476;2023-02-13T04:34:35;101761.59;;;0.24;91.16
15646;BME280;7922;43.622;1.476;2023-02-13T04:37:00;101673.59;;;-0.46;91.63
15646;BME280;7922;43.622;1.476;2023-02-13T04:39:26;101727.34;;;-0.18;91.52
15646;BME280;7922;43.622;1.476;2023-02-13T04:41:51;101779.19;;;0.03;91.85
15646;BME280;7922;43.622;1.476;2023-02-13T04:44:16;101727.31;;;-0.20;91.69
15646;BME280;7922;43.622;1.476;2023-02-13T04:46:42;101815.56;;;0.28;92.29
15646;BME280;7922;43.622;1.476;2023-02-13T04:49:09;101736.06;;;-0.18;91.66
15646;BME280;7922;43.622;1.476;2023-02-13T04:51:34;101744.44;;;0.01;92.94
15646;BME280;7922;43.622;1.476;2023-02-13T04:53:59;101720.50;;;-0.15;93.18
15646;BME280;7922;43.622;1.476;2023-02-13T04:56:25;101641.97;;;-0.60;92.59
15646;BME280;7922;43.622;1.476;2023-02-13T04:58:50;101669.63;;;-0.34;94.74
15646;BME280;7922;43.622;1.476;2023-02-13T05:01:16;101822.47;;;0.58;93.80
15646;BME280;7922;43.622;1.476;2023-02-13T05:03:41;101736.16;;;0.15;93.62
15646;BME280;7922;43.622;1.476;2023-02-13T05:06:06;101737.72;;;0.09;93.74
15646;BME280;7922;43.622;1.476;2023-02-13T05:08:32;101756.28;;;0.21;92.24
15646;BME280;7922;43.622;1.476;2023-02-13T05:10:57;101735.09;;;0.09;92.74
15646;BME280;7922;43.622;1.476;2023-02-13T05:13:23;101783.31;;;0.24;92.42
15646;BME280;7922;43.622;1.476;2023-02-13T05:15:48;101789.66;;;0.33;91.97
15646;BME280;7922;43.622;1.476;2023-02-13T05:18:13;101803.56;;;0.33;91.68
15646;BME280;7922;43.622;1.476;2023-02-13T05:20:38;101718.56;;;-0.22;92.50
15646;BME280;7922;43.622;1.476;2023-02-13T05:23:04;101791.78;;;0.17;92.24
15646;BME280;7922;43.622;1.476;2023-02-13T05:25:29;101731.88;;;-0.13;92.07
15646;BME280;7922;43.622;1.476;2023-02-13T05:27:54;101675.19;;;-0.52;92.09
15646;BME280;7922;43.622;1.476;2023-02-13T05:30:20;101775.53;;;-0.04;91.67
15646;BME280;7922;43.622;1.476;2023-02-13T05:32:45;101818.78;;;0.19;91.77
15646;BME280;7922;43.622;1.476;2023-02-13T05:35:10;101810.03;;;0.17;91.29
15646;BME280;7922;43.622;1.476;2023-02-13T05:37:36;101605.22;;;-1.00;91.17
15646;BME280;7922;43.622;1.476;2023-02-13T05:40:01;101562.63;;;-1.32;91.57
15646;BME280;7922;43.622;1.476;2023-02-13T05:42:26;101646.72;;;-0.76;91.80
15646;BME280;7922;43.622;1.476;2023-02-13T05:44:52;101812.63;;;0.17;90.86
15646;BME280;7922;43.622;1.476;2023-02-13T05:47:17;101720.78;;;-0.36;91.54
15646;BME280;7922;43.622;1.476;2023-02-13T05:49:42;101741.88;;;-0.27;91.97
15646;BME280;7922;43.622;1.476;2023-02-13T05:52:07;101838.41;;;0.37;93.86
15646;BME280;7922;43.622;1.476;2023-02-13T05:54:33;101722.22;;;-0.17;94.16
15646;BME280;7922;43.622;1.476;2023-02-13T05:56:58;101766.47;;;0.12;94.49
15646;BME280;7922;43.622;1.476;2023-02-13T05:59:23;101751.63;;;0.09;95.49
15646;BME280;7922;43.622;1.476;2023-02-13T06:01:48;101816.34;;;0.56;94.08
15646;BME280;7922;43.622;1.476;2023-02-13T06:04:14;101697.31;;;-0.07;94.20
15646;BME280;7922;43.622;1.476;2023-02-13T06:06:39;101639.31;;;-0.32;95.11
15646;BME280;7922;43.622;1.476;2023-02-13T06:09:04;101785.84;;;0.53;94.91
15646;BME280;7922;43.622;1.476;2023-02-13T06:11:30;101742.84;;;0.37;94.83
15646;BME280;7922;43.622;1.476;2023-02-13T06:13:55;101835.00;;;1.03;95.11
15646;BME280;7922;43.622;1.476;2023-02-13T06:16:20;101704.34;;;0.27;95.13
15646;BME280;7922;43.622;1.476;2023-02-13T06:18:45;101650.78;;;0.07;95.00
15646;BME280;7922;43.622;1.476;2023-02-13T06:21:11;101663.22;;;0.15;95.25
15646;BME280;7922;43.622;1.476;2023-02-13T06:23:36;101809.63;;;0.97;95.87
15646;BME280;7922;43.622;1.476;2023-02-13T06:26:03;101665.25;;;0.27;96.18
15646;BME280;7922;43.622;1.476;2023-02-13T06:28:29;101806.53;;;1.12;96.05
15646;BME280;7922;43.622;1.476;2023-02-13T06:30:54;101791.69;;;1.09;96.51
15646;BME280;7922;43.622;1.476;2023-02-13T06:33:19;101617.06;;;0.11;96.14
15646;BME280;7922;43.622;1.476;2023-02-13T06:35:44;101791.84;;;1.15;96.25
15646;BME280;7922;43.622;1.476;2023-02-13T06:38:10;101785.56;;;1.09;96.41
15646;BME280;7922;43.622;1.476;2023-02-13T06:40:35;101839.41;;;1.38;95.95
15646;BME280;7922;43.622;1.476;2023-02-13T06:43:00;101835.97;;;1.39;96.37
15646;BME280;7922;43.622;1.476;2023-02-13T06:45:25;101839.16;;;1.28;95.85
15646;BME280;7922;43.622;1.476;2023-02-13T06:47:51;101768.75;;;0.96;95.41
15646;BME280;7922;43.622;1.476;2023-02-13T06:50:16;101807.56;;;1.17;95.58
15646;BME280;7922;43.622;1.476;2023-02-13T06:52:49;101732.53;;;0.74;95.81
15646;BME280;7922;43.622;1.476;2023-02-13T06:55:15;101820.88;;;1.28;96.20
15646;BME280;7922;43.622;1.476;2023-02-13T06:57:42;101779.41;;;1.05;96.08
15646;BME280;7922;43.622;1.476;2023-02-13T07:00:09;101727.31;;;0.74;96.31
15646;BME280;7922;43.622;1.476;2023-02-13T07:02:36;101810.97;;;1.14;96.15
15646;BME280;7922;43.622;1.476;2023-02-13T07:05:01;101790.06;;;1.13;95.89
15646;BME280;7922;43.622;1.476;2023-02-13T07:07:26;101831.63;;;1.41;95.60
15646;BME280;7922;43.622;1.476;2023-02-13T07:09:51;101782.34;;;1.19;96.01
15646;BME280;7922;43.622;1.476;2023-02-13T07:12:17;101775.28;;;1.15;95.73
15646;BME280;7922;43.622;1.476;2023-02-13T07:14:42;101703.16;;;0.82;96.05
15646;BME280;7922;43.622;1.476;2023-02-13T07:17:07;101859.47;;;1.76;96.09
15646;BME280;7922;43.622;1.476;2023-02-13T07:19:32;101839.19;;;1.65;96.00
15646;BME280;7922;43.622;1.476;2023-02-13T07:21:58;101659.50;;;0.74;95.85
15646;BME280;7922;43.622;1.476;2023-02-13T07:24:23;101861.72;;;1.98;95.24
15646;BME280;7922;43.622;1.476;2023-02-13T07:26:48;101825.69;;;1.83;95.75
15646;BME280;7922;43.622;1.476;2023-02-13T07:29:14;101813.47;;;1.82;95.58
15646;BME280;7922;43.622;1.476;2023-02-13T07:31:39;101819.72;;;1.89;95.56
15646;BME280;7922;43.622;1.476;2023-02-13T07:34:04;101754.75;;;1.66;94.97
15646;BME280;7922;43.622;1.476;2023-02-13T07:36:30;101724.25;;;1.64;94.70
15646;BME280;7922;43.622;1.476;2023-02-13T07:38:55;101816.09;;;2.23;94.50
15646;BME280;7922;43.622;1.476;2023-02-13T07:41:20;101745.63;;;1.87;94.44
15646;BME280;7922;43.622;1.476;2023-02-13T07:43:45;101770.63;;;2.15;93.12
15646;BME280;7922;43.622;1.476;2023-02-13T07:46:11;101832.53;;;2.60;93.89
15646;BME280;7922;43.622;1.476;2023-02-13T07:48:36;101845.97;;;2.77;93.67
15646;BME280;7922;43.622;1.476;2023-02-13T07:51:03;101816.25;;;2.73;93.76
15646;BME280;7922;43.622;1.476;2023-02-13T07:53:29;101802.38;;;2.77;93.14
15646;BME280;7922;43.622;1.476;2023-02-13T07:55:54;101830.88;;;3.10;92.87
15646;BME280;7922;43.622;1.476;2023-02-13T07:58:19;101846.06;;;3.30;92.89
15646;BME280;7922;43.622;1.476;2023-02-13T08:00:44;101832.13;;;3.32;92.62
15646;BME280;7922;43.622;1.476;2023-02-13T08:03:10;101758.25;;;2.99;92.33
15646;BME280;7922;43.622;1.476;2023-02-13T08:05:35;101845.66;;;3.57;91.96
15646;BME280;7922;43.622;1.476;2023-02-13T08:08:01;101733.84;;;3.01;91.56
15646;BME280;7922;43.622;1.476;2023-02-13T08:10:26;101853.81;;;3.75;91.62
15646;BME280;7922;43.622;1.476;2023-02-13T08:12:52;101740.34;;;3.23;91.27
15646;BME280;7922;43.622;1.476;2023-02-13T08:15:18;101858.56;;;4.01;91.16
15646;BME280;7922;43.622;1.476;2023-02-13T08:17:43;101817.34;;;3.91;90.47
15646;BME280;7922;43.622;1.476;2023-02-13T08:20:09;101803.44;;;3.96;90.50
15646;BME280;7922;43.622;1.476;2023-02-13T08:22:35;101791.06;;;3.88;90.41
15646;BME280;7922;43.622;1.476;2023-02-13T08:25:01;101712.81;;;3.50;90.07
15646;BME280;7922;43.622;1.476;2023-02-13T08:27:26;101760.63;;;3.97;89.72
15646;BME280;7922;43.622;1.476;2023-02-13T08:29:52;101872.59;;;4.70;89.13
15646;BME280;7922;43.622;1.476;2023-02-13T08:32:17;101833.06;;;4.56;89.43
15646;BME280;7922;43.622;1.476;2023-02-13T08:34:42;101859.59;;;4.82;88.92
15646;BME280;7922;43.622;1.476;2023-02-13T08:37:08;101860.59;;;4.93;89.20
15646;BME280;7922;43.622;1.476;2023-02-13T08:39:33;101737.59;;;4.43;88.75
15646;BME280;7922;43.622;1.476;2023-02-13T08:41:58;101830.94;;;5.02;88.07
15646;BME280;7922;43.622;1.476;2023-02-13T08:44:24;101732.53;;;4.63;88.10
15646;BME280;7922;43.622;1.476;2023-02-13T08:46:49;101849.69;;;5.39;88.26
15646;BME280;7922;43.622;1.476;2023-02-13T08:49:14;101867.47;;;5.70;88.31
15646;BME280;7922;43.622;1.476;2023-02-13T08:51:39;101806.81;;;5.46;87.23
15646;BME280;7922;43.622;1.476;2023-02-13T08:54:05;101849.25;;;5.95;87.37
15646;BME280;7922;43.622;1.476;2023-02-13T08:56:30;101866.06;;;6.11;87.19
15646;BME280;7922;43.622;1.476;2023-02-13T08:58:55;101823.94;;;6.12;87.11
15646;BME280;7922;43.622;1.476;2023-02-13T09:01:21;101889.94;;;6.49;86.75
15646;BME280;7922;43.622;1.476;2023-02-13T09:03:46;101797.69;;;6.24;86.42
15646;BME280;7922;43.622;1.476;2023-02-13T09:06:11;101895.41;;;6.95;86.16
15646;BME280;7922;43.622;1.476;2023-02-13T09:08:36;101879.63;;;7.10;86.07
15646;BME280;7922;43.622;1.476;2023-02-13T09:11:03;101866.47;;;7.09;85.83
15646;BME280;7922;43.622;1.476;2023-02-13T09:13:29;101819.00;;;6.95;85.48
15646;BME280;7922;43.622;1.476;2023-02-13T09:16:02;101868.25;;;7.36;84.36
15646;BME280;7922;43.622;1.476;2023-02-13T09:18:27;101728.53;;;6.70;84.31
15646;BME280;7922;43.622;1.476;2023-02-13T09:21:06;101752.25;;;6.99;83.92
15646;BME280;7922;43.622;1.476;2023-02-13T09:23:33;101896.41;;;7.90;83.49
15646;BME280;7922;43.622;1.476;2023-02-13T09:26:03;101893.75;;;7.98;82.83
15646;BME280;7922;43.622;1.476;2023-02-13T09:28:30;101878.78;;;8.08;82.85
15646;BME280;7922;43.622;1.476;2023-02-13T09:30:56;101722.38;;;7.29;82.30
15646;BME280;7922;43.622;1.476;2023-02-13T09:33:22;101809.31;;;7.90;81.32
15646;BME280;7922;43.622;1.476;2023-02-13T09:35:47;101796.16;;;7.86;81.13
15646;BME280;7922;43.622;1.476;2023-02-13T09:38:12;101769.75;;;7.89;80.50
15646;BME280;7922;43.622;1.476;2023-02-13T09:40:55;101858.50;;;8.36;80.74
15646;BME280;7922;43.622;1.476;2023-02-13T09:43:33;101724.09;;;7.70;79.96
15646;BME280;7922;43.622;1.476;2023-02-13T09:46:22;101888.31;;;8.70;79.58
15646;BME280;7922;43.622;1.476;2023-02-13T09:48:54;101760.03;;;8.08;79.18
15646;BME280;7922;43.622;1.476;2023-02-13T09:51:21;101838.19;;;8.61;79.05
15646;BME280;7922;43.622;1.476;2023-02-13T09:54:15;101889.94;;;9.00;78.62
15646;BME280;7922;43.622;1.476;2023-02-13T09:57:04;101884.59;;;9.11;78.26
15646;BME280;7922;43.622;1.476;2023-02-13T10:08:09;101756.28;;;8.59;76.49
15646;BME280;7922;43.622;1.476;2023-02-13T10:10:49;101896.72;;;9.49;76.22
15646;BME280;7922;43.622;1.476;2023-02-13T10:16:13;101847.50;;;9.26;75.34
15646;BME280;7922;43.622;1.476;2023-02-13T10:21:33;101859.59;;;9.56;75.18
15646;BME280;7922;43.622;1.476;2023-02-13T10:27:05;101848.09;;;9.60;73.51
15646;BME280;7922;43.622;1.476;2023-02-13T10:35:17;101869.78;;;10.02;72.85
15646;BME280;7922;43.622;1.476;2023-02-13T10:37:43;101831.09;;;9.87;71.97
15646;BME280;7922;43.622;1.476;2023-02-13T10:40:10;101839.72;;;10.08;71.87
15646;BME280;7922;43.622;1.476;2023-02-13T10:42:59;101818.50;;;10.11;70.85
15646;BME280;7922;43.622;1.476;2023-02-13T10:45:43;101824.56;;;10.22;70.24
15646;BME280;7922;43.622;1.476;2023-02-13T11:02:31;101824.41;;;10.39;68.11
15646;BME280;7922;43.622;1.476;2023-02-13T11:07:35;101823.31;;;10.54;67.06
15646;BME280;7922;43.622;1.476;2023-02-13T11:10:05;101774.16;;;10.31;66.68
15646;BME280;7922;43.622;1.476;2023-02-13T11:12:37;101744.19;;;10.26;66.98
15646;BME280;7922;43.622;1.476;2023-02-13T11:15:07;101660.72;;;9.95;66.93
15646;BME280;7922;43.622;1.476;2023-02-13T11:17:44;101705.34;;;10.24;66.82
15646;BME280;7922;43.622;1.476;2023-02-13T11:22:49;101721.59;;;10.64;64.69
15646;BME280;7922;43.622;1.476;2023-02-13T11:25:24;101809.19;;;11.17;63.90
15646;BME280;7922;43.622;1.476;2023-02-13T11:28:03;101719.06;;;10.55;64.21
15646;BME280;7922;43.622;1.476;2023-02-13T11:30:34;101825.84;;;11.25;64.32
15646;BME280;7922;43.622;1.476;2023-02-13T11:33:03;101790.72;;;11.09;64.37
15646;BME280;7922;43.622;1.476;2023-02-13T11:35:32;101757.22;;;11.05;63.75
15646;BME280;7922;43.622;1.476;2023-02-13T11:40:42;101763.13;;;11.21;62.72
15646;BME280;7922;43.622;1.476;2023-02-13T11:43:17;101733.81;;;11.28;60.83
15646;BME280;7922;43.622;1.476;2023-02-13T11:45:44;101794.38;;;11.56;61.34
15646;BME280;7922;43.622;1.476;2023-02-13T11:48:19;101697.00;;;11.10;60.51
15646;BME280;7922;43.622;1.476;2023-02-13T11:50:51;101684.88;;;10.97;60.58
15646;BME280;7922;43.622;1.476;2023-02-13T11:53:26;101785.25;;;11.71;59.73
15646;BME280;7922;43.622;1.476;2023-02-13T11:56:11;101768.13;;;11.39;59.56
15646;BME280;7922;43.622;1.476;2023-02-13T11:58:38;101815.25;;;11.77;58.60
15646;BME280;7922;43.622;1.476;2023-02-13T12:04:16;101694.88;;;11.30;58.53
15646;BME280;7922;43.622;1.476;2023-02-13T12:07:01;101774.91;;;12.05;58.85
15646;BME280;7922;43.622;1.476;2023-02-13T12:09:27;101792.72;;;12.00;58.48
15646;BME280;7922;43.622;1.476;2023-02-13T12:11:55;101805.97;;;12.01;58.64
15646;BME280;7922;43.622;1.476;2023-02-13T12:14:25;101702.25;;;11.61;57.21
15646;BME280;7922;43.622;1.476;2023-02-13T12:16:56;101769.63;;;12.03;56.04
15646;BME280;7922;43.622;1.476;2023-02-13T12:19:32;101766.13;;;12.01;55.51
15646;BME280;7922;43.622;1.476;2023-02-13T12:30:08;101782.72;;;12.13;55.24
15646;BME280;7922;43.622;1.476;2023-02-13T12:32:48;101744.84;;;12.03;55.09
15646;BME280;7922;43.622;1.476;2023-02-13T12:38:23;101749.34;;;12.41;52.91
15646;BME280;7922;43.622;1.476;2023-02-13T12:46:39;101764.19;;;12.51;50.54
15646;BME280;7922;43.622;1.476;2023-02-13T13:06:20;101746.78;;;12.77;48.97
15646;BME280;7922;43.622;1.476;2023-02-13T13:14:33;101727.97;;;12.86;48.91
15646;BME280;7922;43.622;1.476;2023-02-13T13:22:47;101690.00;;;12.80;48.42
15646;BME280;7922;43.622;1.476;2023-02-13T13:27:54;101692.63;;;12.81;48.10
15646;BME280;7922;43.622;1.476;2023-02-13T13:30:28;101716.88;;;13.05;48.51
15646;BME280;7922;43.622;1.476;2023-02-13T13:32:58;101643.50;;;12.60;48.84
15646;BME280;7922;43.622;1.476;2023-02-13T13:35:24;101682.56;;;12.94;49.09
15646;BME280;7922;43.622;1.476;2023-02-13T13:37:55;101643.19;;;12.72;49.18
15646;BME280;7922;43.622;1.476;2023-02-13T13:40:41;101584.28;;;12.53;49.62
15646;BME280;7922;43.622;1.476;2023-02-13T13:43:27;101660.34;;;12.95;49.71
15646;BME280;7922;43.622;1.476;2023-02-13T13:46:07;101585.50;;;12.40;50.02
15646;BME280;7922;43.622;1.476;2023-02-13T13:51:17;101654.91;;;12.99;49.52
15646;BME280;7922;43.622;1.476;2023-02-13T14:07:24;101672.53;;;13.05;47.65
15646;BME280;7922;43.622;1.476;2023-02-13T14:09:49;101653.09;;;13.01;48.39
15646;BME280;7922;43.622;1.476;2023-02-13T14:14:50;101507.81;;;12.29;47.81
15646;BME280;7922;43.622;1.476;2023-02-13T14:17:15;101636.75;;;12.83;48.25
15646;BME280;7922;43.622;1.476;2023-02-13T14:19:46;101620.13;;;12.74;47.74
15646;BME280;7922;43.622;1.476;2023-02-13T14:24:49;101641.72;;;12.96;49.34
15646;BME280;7922;43.622;1.476;2023-02-13T14:27:21;101643.47;;;12.96;49.18
15646;BME280;7922;43.622;1.476;2023-02-13T14:29:48;101628.59;;;12.89;49.36
15646;BME280;7922;43.622;1.476;2023-02-13T14:32:21;101668.78;;;13.12;48.58
15646;BME280;7922;43.622;1.476;2023-02-13T14:34:52;101630.56;;;12.82;49.82
15646;BME280;7922;43.622;1.476;2023-02-13T14:37:23;101626.03;;;12.86;50.12
15646;BME280;7922;43.622;1.476;2023-02-13T14:40:11;101687.44;;;13.11;50.68
15646;BME280;7922;43.622;1.476;2023-02-13T14:42:38;101486.38;;;12.01;50.15
15646;BME280;7922;43.622;1.476;2023-02-13T14:45:11;101608.94;;;12.60;50.48
15646;BME280;7922;43.622;1.476;2023-02-13T14:47:42;101549.41;;;12.32;50.78
15646;BME280;7922;43.622;1.476;2023-02-13T14:50:19;101677.84;;;13.05;50.35
15646;BME280;7922;43.622;1.476;2023-02-13T14:52:46;101624.72;;;12.66;51.26
15646;BME280;7922;43.622;1.476;2023-02-13T14:55:16;101641.41;;;12.73;50.66
15646;BME280;7922;43.622;1.476;2023-02-13T14:58:01;101559.38;;;12.22;50.70
15646;BME280;7922;43.622;1.476;2023-02-13T15:01:05;101685.16;;;12.95;50.95
15646;BME280;7922;43.622;1.476;2023-02-13T15:03:58;101624.97;;;12.57;51.35
15646;BME280;7922;43.622;1.476;2023-02-13T15:06:29;101672.00;;;12.91;51.16
15646;BME280;7922;43.622;1.476;2023-02-13T15:08:56;101522.75;;;11.99;50.78
15646;BME280;7922;43.622;1.476;2023-02-13T15:11:39;101676.63;;;12.83;52.12
15646;BME280;7922;43.622;1.476;2023-02-13T15:14:29;101654.78;;;12.70;52.31
15646;BME280;7922;43.622;1.476;2023-02-13T15:17:00;101646.91;;;12.65;52.80
15646;BME280;7922;43.622;1.476;2023-02-13T15:19:26;101637.16;;;12.66;52.63
15646;BME280;7922;43.622;1.476;2023-02-13T15:21:59;101613.59;;;12.50;52.51
15646;BME280;7922;43.622;1.476;2023-02-13T15:24:26;101621.47;;;12.55;52.07
15646;BME280;7922;43.622;1.476;2023-02-13T15:27:01;101618.00;;;12.51;52.86
15646;BME280;7922;43.622;1.476;2023-02-13T15:29:27;101494.91;;;11.76;53.46
15646;BME280;7922;43.622;1.476;2023-02-13T15:31:53;101583.91;;;12.33;53.88
15646;BME280;7922;43.622;1.476;2023-02-13T15:34:28;101645.38;;;12.57;53.72
15646;BME280;7922;43.622;1.476;2023-02-13T15:36:54;101597.16;;;12.35;52.88
15646;BME280;7922;43.622;1.476;2023-02-13T15:39:25;101636.03;;;12.39;52.79
15646;BME280;7922;43.622;1.476;2023-02-13T15:41:56;101662.19;;;12.56;52.96
15646;BME280;7922;43.622;1.476;2023-02-13T15:44:29;101498.88;;;11.57;53.09
15646;BME280;7922;43.622;1.476;2023-02-13T15:47:06;101661.22;;;12.60;52.49